Time;durP1;ratioP1;P1;durP2;ratioP2;P2;SDS_P1;SDS_P2;PMS_P1;PMS_P2;Temp;Humidity;BMP_temperature;BMP_pressure;BME280_temperature;BME280_humidity;BME280_pressure;Samples;Min_cycle;Max_cycle;Signal;HPM_P1;HPM_P2
2023/08/13 00:00:15;;;;;;;3.50;1.90;;;;;;;;;;619443;23;1305;-79
2023/08/13 00:00:31;;;;;;;3.10;1.83;;;;;;;;;;620104;23;912;-78
2023/08/13 00:00:46;;;;;;;3.25;1.77;;;;;;;;;;618349;23;1428;-79
2023/08/13 00:01:02;;;;;;;3.03;1.90;;;;;;;;;;618306;23;1341;-78
2023/08/13 00:01:17;;;;;;;4.67;1.90;;;;;;;;;;621636;23;805;-78
2023/08/13 00:01:32;;;;;;;4.63;1.83;;;;;;;;;;620219;23;1314;-78
2023/08/13 00:01:48;;;;;;;2.70;1.80;;;;;;;;;;621233;23;1373;-78
2023/08/13 00:02:03;;;;;;;2.43;1.67;;;;;;;;;;620492;23;1371;-78
2023/08/13 00:02:18;;;;;;;2.55;1.70;;;;;;;;;;620300;23;1181;-78
2023/08/13 00:02:35;;;;;;;2.07;1.60;;;;;;;;;;620075;23;1265;-79
2023/08/13 00:02:50;;;;;;;1.63;1.45;;;;;;;;;;623003;23;1301;-79
2023/08/13 00:03:06;;;;;;;1.60;1.40;;;;;;;;;;623299;23;955;-79
2023/08/13 00:03:21;;;;;;;1.47;1.30;;;;;;;;;;626142;23;1278;-78
2023/08/13 00:03:36;;;;;;;1.77;1.38;;;;;;;;;;624354;23;1247;-78
2023/08/13 00:03:52;;;;;;;3.43;1.50;;;;;;;;;;619792;23;1189;-77
2023/08/13 00:04:07;;;;;;;3.55;1.60;;;;;;;;;;625328;23;1263;-79
2023/08/13 00:04:23;;;;;;;3.17;1.70;;;;;;;;;;627040;23;959;-78
2023/08/13 00:04:39;;;;;;;3.35;1.80;;;;;;;;;;626664;23;1213;-78
2023/08/13 00:04:54;;;;;;;3.60;1.90;;;;;;;;;;626657;23;1251;-78
2023/08/13 00:05:10;;;;;;;4.30;1.80;;;;;;;;;;621058;23;1292;-78
2023/08/13 00:05:26;;;;;;;3.92;1.70;;;;;;;;;;621041;23;1119;-78
2023/08/13 00:05:42;;;;;;;3.55;1.70;;;;;;;;;;620990;23;1112;-79
2023/08/13 00:05:58;;;;;;;3.63;1.80;;;;;;;;;;621794;23;793;-78
2023/08/13 00:06:13;;;;;;;3.57;1.70;;;;;;;;;;618476;23;1111;-78
2023/08/13 00:06:29;;;;;;;2.85;1.60;;;;;;;;;;619124;23;1280;-78
2023/08/13 00:06:45;;;;;;;2.00;1.50;;;;;;;;;;618991;23;1333;-78
2023/08/13 00:07:01;;;;;;;2.65;1.40;;;;;;;;;;617850;23;1366;-78
2023/08/13 00:07:17;;;;;;;3.10;1.50;;;;;;;;;;618071;23;1359;-77
2023/08/13 00:07:32;;;;;;;2.80;1.50;;;;;;;;;;618038;23;1431;-78
2023/08/13 00:07:48;;;;;;;2.40;1.40;;;;;;;;;;618441;23;1383;-79
2023/08/13 00:08:04;;;;;;;3.83;1.50;;;;;;;;;;618082;23;1172;-78
2023/08/13 00:08:20;;;;;;;5.50;1.80;;;;;;;;;;618504;23;1330;-78
2023/08/13 00:08:35;;;;;;;4.70;1.80;;;;;;;;;;618632;23;1144;-78
2023/08/13 00:08:51;;;;;;;4.18;1.70;;;;;;;;;;619543;23;881;-78
2023/08/13 00:09:10;;;;;;;3.55;1.73;;;;;;;;;;618422;23;1329;-78
2023/08/13 00:09:25;;;;;;;2.53;1.65;;;;;;;;;;615973;23;919;-78
2023/08/13 00:09:41;;;;;;;3.80;1.60;;;;;;;;;;616725;23;817;-78
2023/08/13 00:09:57;;;;;;;4.40;1.70;;;;;;;;;;618360;23;1374;-78
2023/08/13 00:10:12;;;;;;;3.15;1.70;;;;;;;;;;619367;23;1205;-78
2023/08/13 00:10:28;;;;;;;3.20;1.70;;;;;;;;;;618194;23;1186;-77
2023/08/13 00:10:43;;;;;;;3.23;1.60;;;;;;;;;;614778;23;1279;-78
2023/08/13 00:11:02;;;;;;;3.65;1.58;;;;;;;;;;616404;23;1271;-78
2023/08/13 00:11:18;;;;;;;3.33;1.50;;;;;;;;;;618062;23;959;-78
2023/08/13 00:11:34;;;;;;;2.90;1.58;;;;;;;;;;618309;23;872;-78
2023/08/13 00:11:49;;;;;;;3.25;1.60;;;;;;;;;;619689;23;1373;-78
2023/08/13 00:12:06;;;;;;;2.75;1.70;;;;;;;;;;619672;23;1311;-77
2023/08/13 00:12:22;;;;;;;3.85;1.80;;;;;;;;;;622213;23;1403;-78
2023/08/13 00:12:37;;;;;;;3.63;1.65;;;;;;;;;;620862;23;1110;-78
2023/08/13 00:12:53;;;;;;;3.37;1.57;;;;;;;;;;618497;23;1464;-78
2023/08/13 00:13:10;;;;;;;3.08;1.45;;;;;;;;;;615611;23;1403;-78
2023/08/13 00:13:26;;;;;;;1.55;1.30;;;;;;;;;;621520;23;1204;-78
2023/08/13 00:13:42;;;;;;;1.60;1.40;;;;;;;;;;621523;23;1244;-78
2023/08/13 00:13:57;;;;;;;3.28;1.45;;;;;;;;;;621889;23;1362;-78
2023/08/13 00:14:13;;;;;;;3.78;1.40;;;;;;;;;;618747;23;1332;-78
2023/08/13 00:14:29;;;;;;;3.10;1.50;;;;;;;;;;618646;23;1435;-78
2023/08/13 00:14:45;;;;;;;2.87;1.43;;;;;;;;;;618501;23;1273;-78
2023/08/13 00:15:01;;;;;;;3.05;1.40;;;;;;;;;;618728;23;1270;-78
2023/08/13 00:15:17;;;;;;;4.40;1.48;;;;;;;;;;618846;23;1361;-78
2023/08/13 00:15:32;;;;;;;4.50;1.50;;;;;;;;;;615482;23;1192;-77
2023/08/13 00:15:48;;;;;;;4.50;1.50;;;;;;;;;;620929;23;1347;-78
2023/08/13 00:16:04;;;;;;;4.40;1.50;;;;;;;;;;621594;23;1340;-78
2023/08/13 00:16:20;;;;;;;3.63;1.52;;;;;;;;;;618616;23;1403;-78
2023/08/13 00:16:36;;;;;;;3.10;1.50;;;;;;;;;;618566;23;1198;-78
2023/08/13 00:16:52;;;;;;;2.85;1.30;;;;;;;;;;615909;23;1128;-78
2023/08/13 00:17:08;;;;;;;2.60;1.40;;;;;;;;;;615724;23;1272;-78
2023/08/13 00:17:23;;;;;;;3.90;1.55;;;;;;;;;;615566;23;1084;-78
2023/08/13 00:17:39;;;;;;;3.93;1.43;;;;;;;;;;612616;23;1390;-78
2023/08/13 00:17:55;;;;;;;2.88;1.40;;;;;;;;;;612202;24;1262;-78
2023/08/13 00:18:11;;;;;;;2.47;1.42;;;;;;;;;;609664;23;1349;-78
2023/08/13 00:18:29;;;;;;;3.25;1.50;;;;;;;;;;612661;23;1276;-78
2023/08/13 00:18:45;;;;;;;3.70;1.50;;;;;;;;;;612543;23;1326;-78
2023/08/13 00:19:01;;;;;;;3.60;1.48;;;;;;;;;;609747;24;1163;-78
2023/08/13 00:19:22;;;;;;;3.08;1.33;;;;;;;;;;609871;23;1441;-78
2023/08/13 00:19:37;;;;;;;2.25;1.40;;;;;;;;;;610070;23;1500;-78
2023/08/13 00:19:53;;;;;;;2.67;1.50;;;;;;;;;;612861;23;1331;-78
2023/08/13 00:20:10;;;;;;;4.28;1.40;;;;;;;;;;612424;23;1179;-78
2023/08/13 00:20:25;;;;;;;3.95;1.30;;;;;;;;;;615049;23;1322;-78
2023/08/13 00:20:41;;;;;;;2.83;1.40;;;;;;;;;;615356;23;1416;-78
2023/08/13 00:20:57;;;;;;;5.40;1.58;;;;;;;;;;615169;23;1270;-78
2023/08/13 00:21:12;;;;;;;4.90;1.43;;;;;;;;;;615573;23;1179;-78
2023/08/13 00:21:28;;;;;;;4.75;1.40;;;;;;;;;;618429;23;1218;-78
2023/08/13 00:21:49;;;;;;;4.93;1.40;;;;;;;;;;615352;23;1225;-78
2023/08/13 00:22:05;;;;;;;2.63;1.38;;;;;;;;;;615912;23;1269;-78
2023/08/13 00:22:21;;;;;;;2.40;1.30;;;;;;;;;;618492;23;1370;-79
2023/08/13 00:22:37;;;;;;;2.45;1.20;;;;;;;;;;618122;23;1410;-78
2023/08/13 00:22:53;;;;;;;2.17;1.25;;;;;;;;;;621119;23;1466;-78
2023/08/13 00:23:08;;;;;;;2.88;1.40;;;;;;;;;;621529;23;1320;-78
2023/08/13 00:23:25;;;;;;;3.60;1.50;;;;;;;;;;620836;23;1158;-78
2023/08/13 00:23:40;;;;;;;3.58;1.50;;;;;;;;;;618116;23;1337;-78
2023/08/13 00:23:56;;;;;;;6.10;1.60;;;;;;;;;;617772;23;1129;-78
2023/08/13 00:24:12;;;;;;;5.45;1.58;;;;;;;;;;618574;23;1379;-78
2023/08/13 00:24:30;;;;;;;2.67;1.40;;;;;;;;;;618469;23;1415;-78
2023/08/13 00:24:46;;;;;;;2.90;1.27;;;;;;;;;;615537;23;1340;-78
2023/08/13 00:25:01;;;;;;;3.20;1.50;;;;;;;;;;615807;23;1340;-77
2023/08/13 00:25:17;;;;;;;4.78;1.60;;;;;;;;;;615247;23;1187;-78
2023/08/13 00:25:33;;;;;;;6.07;1.65;;;;;;;;;;615646;23;848;-78
2023/08/13 00:25:48;;;;;;;4.60;1.53;;;;;;;;;;617791;23;1363;-78
2023/08/13 00:26:04;;;;;;;4.22;1.40;;;;;;;;;;617911;23;1431;-78
2023/08/13 00:26:20;;;;;;;4.13;1.38;;;;;;;;;;615028;23;1346;-77
2023/08/13 00:26:37;;;;;;;3.38;1.48;;;;;;;;;;615086;23;1308;-78
2023/08/13 00:26:53;;;;;;;2.97;1.48;;;;;;;;;;612526;23;1140;-78
2023/08/13 00:27:08;;;;;;;3.42;1.40;;;;;;;;;;615384;23;1301;-78
2023/08/13 00:27:24;;;;;;;3.42;1.50;;;;;;;;;;615599;23;1358;-78
2023/08/13 00:27:39;;;;;;;3.50;1.70;;;;;;;;;;615221;23;1213;-79
2023/08/13 00:27:55;;;;;;;3.50;1.60;;;;;;;;;;612431;23;1207;-78
2023/08/13 00:28:11;;;;;;;2.75;1.52;;;;;;;;;;615091;23;1313;-78
2023/08/13 00:28:26;;;;;;;3.27;1.60;;;;;;;;;;618246;23;1264;-78
2023/08/13 00:28:42;;;;;;;3.13;1.60;;;;;;;;;;617908;23;1313;-78
2023/08/13 00:28:58;;;;;;;2.63;1.60;;;;;;;;;;618075;23;1206;-78
2023/08/13 00:29:14;;;;;;;3.40;1.60;;;;;;;;;;621634;23;1328;-78
2023/08/13 00:29:31;;;;;;;3.40;1.53;;;;;;;;;;621240;23;1103;-79
2023/08/13 00:29:47;;;;;;;2.50;1.70;;;;;;;;;;618338;23;1184;-78
2023/08/13 00:30:03;;;;;;;2.83;1.80;;;;;;;;;;621454;23;1318;-78
2023/08/13 00:30:18;;;;;;;2.63;1.70;;;;;;;;;;621176;23;848;-79
2023/08/13 00:30:35;;;;;;;2.20;1.52;;;;;;;;;;621143;23;1167;-78
2023/08/13 00:30:50;;;;;;;3.15;1.63;;;;;;;;;;618589;23;1257;-78
2023/08/13 00:31:06;;;;;;;4.18;1.70;;;;;;;;;;617989;23;1336;-78
2023/08/13 00:31:22;;;;;;;4.00;1.55;;;;;;;;;;615139;23;1267;-78
2023/08/13 00:31:38;;;;;;;3.33;1.58;;;;;;;;;;615212;23;1289;-77
2023/08/13 00:31:55;;;;;;;3.40;1.70;;;;;;;;;;615436;23;1482;-78
2023/08/13 00:32:14;;;;;;;4.53;1.70;;;;;;;;;;615397;23;1347;-78
2023/08/13 00:32:30;;;;;;;3.83;1.60;;;;;;;;;;615670;23;1484;-77
2023/08/13 00:32:45;;;;;;;2.60;1.48;;;;;;;;;;618552;23;1365;-78
2023/08/13 00:33:01;;;;;;;3.10;1.50;;;;;;;;;;618206;23;1090;-78
2023/08/13 00:33:17;;;;;;;3.57;1.50;;;;;;;;;;618321;23;1229;-78
2023/08/13 00:33:32;;;;;;;3.88;1.50;;;;;;;;;;618375;23;785;-78
2023/08/13 00:33:48;;;;;;;4.47;1.73;;;;;;;;;;618339;23;872;-79
2023/08/13 00:34:03;;;;;;;4.80;1.70;;;;;;;;;;615329;23;1227;-78
2023/08/13 00:34:19;;;;;;;3.60;1.55;;;;;;;;;;616255;23;1303;-78
2023/08/13 00:34:35;;;;;;;2.55;1.60;;;;;;;;;;618182;23;1142;-78
2023/08/13 00:34:53;;;;;;;2.73;1.53;;;;;;;;;;619284;23;832;-78
2023/08/13 00:35:09;;;;;;;2.60;1.40;;;;;;;;;;618426;23;1456;-78
2023/08/13 00:35:24;;;;;;;2.47;1.50;;;;;;;;;;614992;23;1432;-78
2023/08/13 00:35:43;;;;;;;2.17;1.42;;;;;;;;;;615432;23;1477;-78
2023/08/13 00:36:02;;;;;;;2.20;1.40;;;;;;;;;;617753;23;1179;-78
2023/08/13 00:36:18;;;;;;;2.55;1.30;;;;;;;;;;621036;23;1284;-78
2023/08/13 00:36:34;;;;;;;2.90;1.30;;;;;;;;;;618443;23;958;-78
2023/08/13 00:36:49;;;;;;;3.50;1.40;;;;;;;;;;620890;23;1213;-78
2023/08/13 00:37:05;;;;;;;2.70;1.30;;;;;;;;;;621002;23;1223;-78
2023/08/13 00:37:21;;;;;;;2.72;1.40;;;;;;;;;;620831;23;1309;-78
2023/08/13 00:37:37;;;;;;;2.72;1.50;;;;;;;;;;618156;23;1119;-79
2023/08/13 00:37:52;;;;;;;1.80;1.30;;;;;;;;;;618544;23;852;-78
2023/08/13 00:38:08;;;;;;;2.22;1.25;;;;;;;;;;618435;23;1021;-78
2023/08/13 00:38:24;;;;;;;2.38;1.30;;;;;;;;;;615666;23;1349;-78
2023/08/13 00:38:40;;;;;;;2.90;1.23;;;;;;;;;;615418;23;1157;-78
2023/08/13 00:38:59;;;;;;;3.70;1.40;;;;;;;;;;616243;23;1170;-79
2023/08/13 00:39:15;;;;;;;3.67;1.50;;;;;;;;;;619628;23;1313;-78
2023/08/13 00:39:30;;;;;;;3.03;1.48;;;;;;;;;;618034;23;1964;-77
2023/08/13 00:39:46;;;;;;;3.20;1.60;;;;;;;;;;618392;23;849;-78
2023/08/13 00:40:04;;;;;;;3.45;1.55;;;;;;;;;;618572;23;812;-78
2023/08/13 00:40:19;;;;;;;6.57;1.60;;;;;;;;;;620073;23;1420;-78
2023/08/13 00:40:35;;;;;;;7.33;1.67;;;;;;;;;;621299;23;1293;-77
2023/08/13 00:40:51;;;;;;;3.40;1.52;;;;;;;;;;621000;23;860;-78
2023/08/13 00:41:07;;;;;;;3.15;1.60;;;;;;;;;;618039;23;1262;-78
2023/08/13 00:41:23;;;;;;;5.18;1.75;;;;;;;;;;615329;23;1285;-79
2023/08/13 00:41:39;;;;;;;5.32;1.80;;;;;;;;;;615334;23;1271;-79
2023/08/13 00:41:54;;;;;;;3.58;1.73;;;;;;;;;;615270;23;1300;-78
2023/08/13 00:42:10;;;;;;;3.58;2.00;;;;;;;;;;618290;23;1336;-77
2023/08/13 00:42:29;;;;;;;3.83;2.10;;;;;;;;;;615615;23;1229;-78
2023/08/13 00:42:45;;;;;;;3.88;1.80;;;;;;;;;;615584;23;1317;-78
2023/08/13 00:43:00;;;;;;;3.70;1.80;;;;;;;;;;618036;23;1298;-78
2023/08/13 00:43:16;;;;;;;3.60;1.87;;;;;;;;;;615474;23;1110;-78
2023/08/13 00:43:32;;;;;;;3.20;1.80;;;;;;;;;;612718;23;1232;-78
2023/08/13 00:43:49;;;;;;;3.08;1.80;;;;;;;;;;615499;23;1374;-77
2023/08/13 00:44:05;;;;;;;3.53;1.90;;;;;;;;;;615106;23;1388;-78
2023/08/13 00:44:21;;;;;;;3.45;2.00;;;;;;;;;;612222;23;1354;-77
2023/08/13 00:44:39;;;;;;;2.70;1.90;;;;;;;;;;615047;23;1250;-78
2023/08/13 00:44:56;;;;;;;3.28;1.90;;;;;;;;;;612947;23;1481;-78
2023/08/13 00:45:12;;;;;;;4.80;2.00;;;;;;;;;;612491;23;1476;-78
2023/08/13 00:45:30;;;;;;;4.15;1.85;;;;;;;;;;612343;24;1188;-78
2023/08/13 00:45:46;;;;;;;4.80;1.90;;;;;;;;;;615340;23;1336;-78
2023/08/13 00:46:06;;;;;;;3.65;2.00;;;;;;;;;;614992;23;1214;-78
2023/08/13 00:46:26;;;;;;;3.33;2.10;;;;;;;;;;617643;23;1473;-78
2023/08/13 00:46:41;;;;;;;3.60;2.00;;;;;;;;;;617695;23;1115;-78
2023/08/13 00:46:57;;;;;;;3.90;2.10;;;;;;;;;;617929;23;1450;-78
2023/08/13 00:47:13;;;;;;;3.88;2.05;;;;;;;;;;618045;23;1244;-78
2023/08/13 00:47:28;;;;;;;3.10;1.93;;;;;;;;;;620813;23;1233;-77
2023/08/13 00:47:44;;;;;;;4.40;1.90;;;;;;;;;;618011;23;1447;-78
2023/08/13 00:48:05;;;;;;;4.55;1.90;;;;;;;;;;618086;23;1407;-78
2023/08/13 00:48:21;;;;;;;3.90;2.00;;;;;;;;;;612783;23;1276;-78
2023/08/13 00:48:38;;;;;;;3.10;2.00;;;;;;;;;;615273;23;1135;-79
2023/08/13 00:48:58;;;;;;;2.85;1.90;;;;;;;;;;614920;23;844;-78
2023/08/13 00:49:16;;;;;;;3.25;1.90;;;;;;;;;;611609;23;2091;-78
2023/08/13 00:49:33;;;;;;;2.70;1.77;;;;;;;;;;615347;23;916;-77
2023/08/13 00:49:50;;;;;;;3.20;1.70;;;;;;;;;;618225;23;844;-79
2023/08/13 00:50:06;;;;;;;3.38;2.00;;;;;;;;;;621008;23;1127;-78
2023/08/13 00:50:22;;;;;;;4.03;2.30;;;;;;;;;;617757;23;1347;-78
2023/08/13 00:50:39;;;;;;;4.82;2.33;;;;;;;;;;617881;23;1424;-78
2023/08/13 00:50:55;;;;;;;4.35;2.30;;;;;;;;;;618029;23;1376;-78
2023/08/13 00:51:12;;;;;;;3.90;2.20;;;;;;;;;;619880;23;1267;-78
2023/08/13 00:51:29;;;;;;;3.60;2.10;;;;;;;;;;617732;23;1360;-78
2023/08/13 00:51:45;;;;;;;3.13;2.00;;;;;;;;;;617350;23;1259;-78
2023/08/13 00:52:24;;;;;;;3.72;2.10;;;;;;;;;;617308;23;1549;-78
2023/08/13 00:52:40;;;;;;;4.22;2.10;;;;;;;;;;617546;23;1172;-78
2023/08/13 00:52:56;;;;;;;4.45;2.20;;;;;;;;;;614942;23;1670;-78
2023/08/13 00:53:21;;;;;;;4.78;2.30;;;;;;;;;;617690;23;1312;-78
2023/08/13 00:53:48;;;;;;;4.70;2.20;;;;;;;;;;619603;23;1357;-77
2023/08/13 00:54:11;;;;;;;4.68;2.15;;;;;;;;;;618621;23;1433;-78
2023/08/13 00:54:28;;;;;;;4.85;2.40;;;;;;;;;;615355;23;1266;-78
2023/08/13 00:54:47;;;;;;;4.85;2.50;;;;;;;;;;612639;23;1501;-78
2023/08/13 00:55:06;;;;;;;4.53;2.30;;;;;;;;;;615171;23;1681;-78
2023/08/13 00:55:22;;;;;;;3.80;2.20;;;;;;;;;;615359;23;1334;-78
2023/08/13 00:55:38;;;;;;;3.97;2.20;;;;;;;;;;618295;23;1124;-78
2023/08/13 00:55:57;;;;;;;4.15;2.30;;;;;;;;;;618445;23;1378;-78
2023/08/13 00:56:14;;;;;;;4.85;2.40;;;;;;;;;;618590;23;1310;-78
2023/08/13 00:56:31;;;;;;;4.80;2.20;;;;;;;;;;618084;23;1418;-78
2023/08/13 00:56:47;;;;;;;4.18;2.25;;;;;;;;;;618114;23;840;-78
2023/08/13 00:57:06;;;;;;;4.63;2.40;;;;;;;;;;617695;23;1276;-78
2023/08/13 00:57:27;;;;;;;3.92;2.40;;;;;;;;;;620740;23;1376;-76
2023/08/13 00:57:46;;;;;;;4.35;2.38;;;;;;;;;;620601;23;1339;-78
2023/08/13 00:58:06;;;;;;;4.63;2.33;;;;;;;;;;621707;23;1437;-80
2023/08/13 00:58:21;;;;;;;4.60;2.38;;;;;;;;;;621189;23;1237;-78
2023/08/13 00:58:41;;;;;;;4.82;2.47;;;;;;;;;;620819;23;1321;-78
2023/08/13 00:59:00;;;;;;;3.83;2.10;;;;;;;;;;620804;23;1412;-78
2023/08/13 00:59:15;;;;;;;4.07;2.25;;;;;;;;;;618630;23;1432;-78
2023/08/13 00:59:38;;;;;;;4.50;2.40;;;;;;;;;;615836;23;1923;-78
2023/08/13 00:59:58;;;;;;;3.95;2.40;;;;;;;;;;615197;23;1138;-78
2023/08/13 01:00:16;;;;;;;4.00;2.25;;;;;;;;;;615065;23;1443;-78
2023/08/13 01:00:35;;;;;;;3.47;2.30;;;;;;;;;;615773;23;872;-78
2023/08/13 01:01:14;;;;;;;4.60;2.30;;;;;;;;;;616782;23;1392;-78
2023/08/13 01:01:30;;;;;;;4.07;2.30;;;;;;;;;;617602;23;1337;-78
2023/08/13 01:01:46;;;;;;;4.00;2.30;;;;;;;;;;616348;23;1548;-78
2023/08/13 01:02:02;;;;;;;3.72;2.20;;;;;;;;;;615170;23;1321;-78
2023/08/13 01:02:18;;;;;;;2.95;2.20;;;;;;;;;;612426;23;1397;-78
2023/08/13 01:02:39;;;;;;;4.38;2.20;;;;;;;;;;612286;23;1234;-78
2023/08/13 01:03:01;;;;;;;3.35;2.25;;;;;;;;;;612097;23;1373;-78
2023/08/13 01:03:17;;;;;;;2.97;2.20;;;;;;;;;;615103;23;1473;-78
2023/08/13 01:03:37;;;;;;;3.78;2.20;;;;;;;;;;615463;23;1376;-78
2023/08/13 01:03:53;;;;;;;4.40;2.10;;;;;;;;;;613105;23;1563;-77
2023/08/13 01:04:11;;;;;;;4.87;2.10;;;;;;;;;;615433;23;1318;-78
2023/08/13 01:04:27;;;;;;;3.85;2.17;;;;;;;;;;615383;23;1270;-78
2023/08/13 01:04:46;;;;;;;4.07;2.40;;;;;;;;;;615150;23;1247;-78
2023/08/13 01:05:07;;;;;;;4.68;2.40;;;;;;;;;;612590;23;1312;-78
2023/08/13 01:05:35;;;;;;;3.55;2.28;;;;;;;;;;614812;23;1317;-78
2023/08/13 01:05:56;;;;;;;4.55;2.10;;;;;;;;;;616052;23;1473;-77
2023/08/13 01:06:39;;;;;;;4.30;2.10;;;;;;;;;;618414;23;1228;-78
2023/08/13 01:07:08;;;;;;;4.20;2.20;;;;;;;;;;623517;23;1026;-77
2023/08/13 01:07:40;;;;;;;4.30;2.22;;;;;;;;;;622059;23;1162;-79
2023/08/13 01:08:11;;;;;;;3.75;2.40;;;;;;;;;;625102;23;1352;-78
2023/08/13 01:08:46;;;;;;;3.08;2.30;;;;;;;;;;622488;23;1054;-78
2023/08/13 01:09:13;;;;;;;4.20;2.50;;;;;;;;;;619070;23;1354;-78
2023/08/13 01:10:13;;;;;;;4.65;2.40;;;;;;;;;;618477;23;1380;-79
2023/08/13 01:10:37;;;;;;;4.25;2.42;;;;;;;;;;621132;23;1445;-78
2023/08/13 01:11:03;;;;;;;5.03;2.47;;;;;;;;;;621879;23;919;-79
2023/08/13 01:11:32;;;;;;;4.55;2.38;;;;;;;;;;619392;23;1379;-77
2023/08/13 01:12:06;;;;;;;4.43;2.28;;;;;;;;;;618480;23;1225;-78
2023/08/13 01:12:39;;;;;;;4.20;2.25;;;;;;;;;;616566;23;1421;-79
2023/08/13 01:13:35;;;;;;;5.18;2.40;;;;;;;;;;615363;23;1553;-78
2023/08/13 01:14:20;;;;;;;4.63;2.17;;;;;;;;;;618778;23;1276;-78
2023/08/13 01:14:44;;;;;;;7.28;2.40;;;;;;;;;;621251;23;1058;-78
2023/08/13 01:15:05;;;;;;;4.60;2.22;;;;;;;;;;621365;23;1228;-78
2023/08/13 01:15:30;;;;;;;5.38;2.30;;;;;;;;;;618493;23;1360;-78
2023/08/13 01:15:53;;;;;;;6.38;2.30;;;;;;;;;;623299;23;1427;-78
2023/08/13 01:16:13;;;;;;;5.53;2.40;;;;;;;;;;621718;23;1372;-78
2023/08/13 01:16:42;;;;;;;3.63;2.22;;;;;;;;;;622990;23;1264;-78
2023/08/13 01:17:00;;;;;;;6.00;2.33;;;;;;;;;;619498;23;1300;-78
2023/08/13 01:17:22;;;;;;;4.72;2.25;;;;;;;;;;621410;23;1509;-78
2023/08/13 01:17:42;;;;;;;3.78;2.40;;;;;;;;;;618729;23;1276;-78
2023/08/13 01:18:01;;;;;;;4.50;2.30;;;;;;;;;;618967;23;1495;-78
2023/08/13 01:18:24;;;;;;;4.57;2.28;;;;;;;;;;619475;23;1400;-78
2023/08/13 01:18:44;;;;;;;2.55;2.03;;;;;;;;;;618781;23;1516;-78
2023/08/13 01:19:07;;;;;;;3.45;2.08;;;;;;;;;;621552;23;1127;-78
2023/08/13 01:19:26;;;;;;;3.70;2.15;;;;;;;;;;618145;23;1944;-78
2023/08/13 01:19:43;;;;;;;4.78;2.30;;;;;;;;;;618134;23;1591;-77
2023/08/13 01:19:59;;;;;;;5.07;2.28;;;;;;;;;;618332;23;1319;-77
2023/08/13 01:20:18;;;;;;;5.03;2.25;;;;;;;;;;618850;23;1340;-78
2023/08/13 01:20:39;;;;;;;3.65;2.20;;;;;;;;;;621540;23;1404;-78
2023/08/13 01:20:58;;;;;;;3.00;2.15;;;;;;;;;;618361;23;1477;-78
2023/08/13 01:21:16;;;;;;;4.00;2.30;;;;;;;;;;621927;23;1326;-78
2023/08/13 01:21:35;;;;;;;3.85;2.40;;;;;;;;;;618848;23;1302;-78
2023/08/13 01:21:54;;;;;;;3.28;2.10;;;;;;;;;;616099;23;1377;-78
2023/08/13 01:22:10;;;;;;;3.30;2.10;;;;;;;;;;615938;23;1318;-78
2023/08/13 01:22:27;;;;;;;4.20;2.42;;;;;;;;;;615708;23;1273;-78
2023/08/13 01:22:51;;;;;;;4.80;2.58;;;;;;;;;;618246;23;1549;-78
2023/08/13 01:23:10;;;;;;;3.63;2.30;;;;;;;;;;618500;23;1190;-78
2023/08/13 01:23:32;;;;;;;3.95;2.13;;;;;;;;;;618200;23;1288;-78
2023/08/13 01:23:53;;;;;;;3.33;2.20;;;;;;;;;;621495;23;1388;-78
2023/08/13 01:24:14;;;;;;;3.67;2.28;;;;;;;;;;624827;23;1119;-78
2023/08/13 01:24:33;;;;;;;3.00;2.20;;;;;;;;;;622008;23;1368;-78
2023/08/13 01:24:49;;;;;;;3.10;2.30;;;;;;;;;;621846;23;1230;-77
2023/08/13 01:25:13;;;;;;;4.10;2.22;;;;;;;;;;618517;23;1378;-78
2023/08/13 01:25:53;;;;;;;3.60;2.40;;;;;;;;;;618712;23;1567;-78
2023/08/13 01:26:25;;;;;;;4.32;2.30;;;;;;;;;;615368;23;1079;-78
2023/08/13 01:26:46;;;;;;;3.25;2.25;;;;;;;;;;622784;23;1305;-78
2023/08/13 01:27:06;;;;;;;3.40;2.28;;;;;;;;;;626938;23;1209;-78
2023/08/13 01:27:33;;;;;;;6.65;2.20;;;;;;;;;;624837;23;1409;-78
2023/08/13 01:27:57;;;;;;;4.53;2.40;;;;;;;;;;621246;23;1446;-77
2023/08/13 01:28:36;;;;;;;5.78;2.45;;;;;;;;;;619740;23;1332;-78
2023/08/13 01:29:09;;;;;;;4.45;2.42;;;;;;;;;;621692;23;1136;-78
2023/08/13 01:29:59;;;;;;;5.47;2.35;;;;;;;;;;621524;23;1324;-78
2023/08/13 01:30:41;;;;;;;4.85;2.30;;;;;;;;;;623940;23;1456;-78
2023/08/13 01:31:13;;;;;;;3.20;2.20;;;;;;;;;;620942;23;1504;-78
2023/08/13 01:31:34;;;;;;;4.70;2.33;;;;;;;;;;621674;23;871;-78
2023/08/13 01:31:55;;;;;;;4.28;2.40;;;;;;;;;;618790;23;1122;-78
2023/08/13 01:32:18;;;;;;;3.25;2.30;;;;;;;;;;617998;23;1386;-78
2023/08/13 01:32:50;;;;;;;4.32;2.40;;;;;;;;;;618944;23;1053;-78
2023/08/13 01:33:14;;;;;;;4.10;2.10;;;;;;;;;;621172;23;1230;-78
2023/08/13 01:33:33;;;;;;;4.03;2.20;;;;;;;;;;621298;23;1517;-78
2023/08/13 01:33:56;;;;;;;4.28;2.22;;;;;;;;;;620952;23;1369;-75
2023/08/13 01:34:18;;;;;;;3.83;2.25;;;;;;;;;;621466;23;1395;-75
2023/08/13 01:34:37;;;;;;;4.05;2.45;;;;;;;;;;621657;23;1314;-76
2023/08/13 01:34:57;;;;;;;3.85;2.20;;;;;;;;;;621753;23;1267;-75
2023/08/13 01:35:14;;;;;;;3.60;2.15;;;;;;;;;;620536;23;1435;-75
2023/08/13 01:35:35;;;;;;;3.65;2.13;;;;;;;;;;624629;23;1466;-76
2023/08/13 01:36:01;;;;;;;4.45;2.20;;;;;;;;;;620958;23;1375;-79
2023/08/13 01:36:22;;;;;;;3.33;2.20;;;;;;;;;;621256;23;1316;-78
2023/08/13 01:36:41;;;;;;;4.20;2.10;;;;;;;;;;621680;23;1150;-78
2023/08/13 01:36:57;;;;;;;3.50;1.95;;;;;;;;;;616023;23;883;-78
2023/08/13 01:37:13;;;;;;;4.00;1.92;;;;;;;;;;618786;23;1371;-78
2023/08/13 01:37:32;;;;;;;4.50;2.00;;;;;;;;;;621739;23;1365;-78
2023/08/13 01:37:50;;;;;;;2.70;2.00;;;;;;;;;;624635;23;1337;-78
2023/08/13 01:38:15;;;;;;;2.75;2.00;;;;;;;;;;621368;23;1249;-78
2023/08/13 01:38:32;;;;;;;2.85;1.85;;;;;;;;;;621293;23;1603;-79
2023/08/13 01:38:49;;;;;;;2.78;1.80;;;;;;;;;;618095;23;1217;-77
2023/08/13 01:39:06;;;;;;;2.38;1.80;;;;;;;;;;615375;23;1465;-78
2023/08/13 01:39:22;;;;;;;2.80;1.80;;;;;;;;;;618401;23;1972;-77
2023/08/13 01:39:38;;;;;;;3.08;1.70;;;;;;;;;;618276;23;1424;-78
2023/08/13 01:39:54;;;;;;;2.55;1.70;;;;;;;;;;615732;23;1398;-78
2023/08/13 01:40:14;;;;;;;2.80;1.95;;;;;;;;;;615588;23;1261;-78
2023/08/13 01:40:33;;;;;;;4.32;2.20;;;;;;;;;;618334;23;1593;-78
2023/08/13 01:40:52;;;;;;;4.80;2.20;;;;;;;;;;621614;23;1451;-78
2023/08/13 01:41:08;;;;;;;5.45;2.15;;;;;;;;;;624211;23;1351;-80
2023/08/13 01:41:29;;;;;;;4.68;2.00;;;;;;;;;;627372;23;1216;-78
2023/08/13 01:42:05;;;;;;;2.42;1.90;;;;;;;;;;627185;23;856;-78
2023/08/13 01:42:23;;;;;;;4.57;2.05;;;;;;;;;;627413;23;1288;-78
2023/08/13 01:42:39;;;;;;;5.95;2.03;;;;;;;;;;626785;23;1302;-78
2023/08/13 01:42:58;;;;;;;5.70;2.10;;;;;;;;;;621756;23;1411;-78
2023/08/13 01:43:23;;;;;;;3.88;1.90;;;;;;;;;;621297;23;1367;-78
2023/08/13 01:43:42;;;;;;;5.53;2.00;;;;;;;;;;617615;23;1398;-78
2023/08/13 01:44:00;;;;;;;4.18;2.00;;;;;;;;;;618717;23;1237;-78
2023/08/13 01:44:17;;;;;;;4.47;2.10;;;;;;;;;;618308;23;1316;-78
2023/08/13 01:44:36;;;;;;;4.63;2.10;;;;;;;;;;621035;23;1347;-78
2023/08/13 01:44:52;;;;;;;4.40;2.10;;;;;;;;;;618731;23;1138;-79
2023/08/13 01:45:08;;;;;;;4.25;2.10;;;;;;;;;;621884;23;1185;-78
2023/08/13 01:45:24;;;;;;;5.32;2.10;;;;;;;;;;627713;23;1244;-78
2023/08/13 01:45:39;;;;;;;3.90;1.92;;;;;;;;;;625007;23;1518;-78
2023/08/13 01:46:03;;;;;;;3.10;1.90;;;;;;;;;;618855;23;1125;-78
2023/08/13 01:46:19;;;;;;;2.22;1.83;;;;;;;;;;618659;23;1254;-78
2023/08/13 01:46:38;;;;;;;2.65;1.80;;;;;;;;;;618164;23;1434;-79
2023/08/13 01:46:54;;;;;;;3.75;1.80;;;;;;;;;;621534;23;1425;-78
2023/08/13 01:47:10;;;;;;;4.03;1.80;;;;;;;;;;621394;23;1306;-78
2023/08/13 01:47:25;;;;;;;4.15;1.90;;;;;;;;;;621773;23;1446;-78
2023/08/13 01:47:45;;;;;;;3.95;2.00;;;;;;;;;;618286;23;1372;-78
2023/08/13 01:48:10;;;;;;;5.95;2.03;;;;;;;;;;618478;23;1398;-78
2023/08/13 01:48:26;;;;;;;5.90;2.00;;;;;;;;;;615543;23;1308;-78
2023/08/13 01:49:02;;;;;;;5.13;2.10;;;;;;;;;;615210;23;1288;-78
2023/08/13 01:49:19;;;;;;;3.53;1.90;;;;;;;;;;609624;24;1481;-78
2023/08/13 01:49:35;;;;;;;3.60;2.08;;;;;;;;;;612450;23;1314;-78
2023/08/13 01:49:51;;;;;;;4.32;2.10;;;;;;;;;;613082;23;1313;-78
2023/08/13 01:50:07;;;;;;;3.53;2.03;;;;;;;;;;615775;23;1316;-78
2023/08/13 01:50:30;;;;;;;2.85;1.92;;;;;;;;;;618402;23;1431;-78
2023/08/13 01:50:46;;;;;;;4.97;2.05;;;;;;;;;;618896;23;1371;-78
2023/08/13 01:51:04;;;;;;;5.00;1.90;;;;;;;;;;618634;23;1365;-78
2023/08/13 01:51:20;;;;;;;4.03;1.95;;;;;;;;;;621300;23;1306;-78
2023/08/13 01:51:41;;;;;;;4.32;1.95;;;;;;;;;;624283;23;1258;-78
2023/08/13 01:51:57;;;;;;;3.85;1.83;;;;;;;;;;624026;23;1384;-78
2023/08/13 01:52:13;;;;;;;3.58;2.00;;;;;;;;;;621058;23;1330;-78
2023/08/13 01:52:32;;;;;;;5.72;1.92;;;;;;;;;;617266;23;1025;-78
2023/08/13 01:52:51;;;;;;;4.75;1.98;;;;;;;;;;616021;23;1115;-77
2023/08/13 01:53:07;;;;;;;5.15;2.10;;;;;;;;;;618346;23;1416;-78
2023/08/13 01:53:23;;;;;;;6.47;2.20;;;;;;;;;;621695;23;1533;-78
2023/08/13 01:53:39;;;;;;;4.03;1.88;;;;;;;;;;621564;23;1356;-78
2023/08/13 01:53:58;;;;;;;2.65;1.70;;;;;;;;;;618533;23;1299;-78
2023/08/13 01:54:14;;;;;;;4.07;1.80;;;;;;;;;;621537;23;1290;-78
2023/08/13 01:54:30;;;;;;;3.17;1.70;;;;;;;;;;621518;23;840;-79
2023/08/13 01:54:46;;;;;;;2.88;1.67;;;;;;;;;;623948;23;785;-78
2023/08/13 01:55:03;;;;;;;5.13;1.80;;;;;;;;;;621313;23;1366;-78
2023/08/13 01:55:21;;;;;;;4.90;2.00;;;;;;;;;;620306;23;1138;-78
2023/08/13 01:55:40;;;;;;;4.55;1.90;;;;;;;;;;621139;23;1264;-78
2023/08/13 01:55:59;;;;;;;3.08;1.90;;;;;;;;;;621637;23;1324;-77
2023/08/13 01:56:18;;;;;;;3.20;2.00;;;;;;;;;;618638;23;1470;-78
2023/08/13 01:56:36;;;;;;;5.32;2.00;;;;;;;;;;618140;23;1413;-78